Airfield :
LOGIN :

Register | Disclaimer

   EN    FR    IT 

 










Legend :    VFR   Marginal VFR   IFR   Intensive IFR   Very Intensive IFR
Visi :
Ceiling :
>= 8 km
>= 3000ft
5 to 8 km
1000 to 3000 ft
1500m to 5 km
500 to 1000 ft
800 to 1500m
200 to 500 ft
< 800m
< 200 ft
Symbols :   Thunderstorms  Fog  Heavy snow  Heavy precipitations  Wind > 20 kt
SIGMETs :     Misc.  Thunderstorms  Icing  Turbulence  Mountain Waves  Volcanic Ashes






- Airport Elevation : 856 ft
- IATA code : VGO


LEVX - Vigo Peinador

CURRENT METAR :
  • 152000Z 04007G21KT 350V080 9999 SCT027 05/04 Q1013 NOSIG

EXPIRED METARs :
  • 151930Z 01005KT 9999 BKN022 BKN035 05/04 Q1013 NOSIG
  • 151900Z 35006KT 320V030 9999 SCT023 BKN030 06/04 Q1013 NOSIG
  • 151830Z VRB02KT CAVOK 05/03 Q1012 NOSIG
  • 151800Z VRB02KT 9999 FEW025 05/04 Q1012 NOSIG
  • 151730Z 36006KT 320V030 9999 FEW025 SCT043 06/03 Q1012 NOSIG

TAF TAF LEVX
Valid from the 15 at 18:00 until the 16 at 18:00 UTC


151700Z 1518/1618 34009KT 9999 SCT030 TX11/1612Z TN04/1607Z
TEMPO 1518/1603 3000 -RA BR BKN014
PROB30
TEMPO 1518/1522 RA SHRA SCT025TCU
BECMG 1606/1608 18010KT



MET'MAP, your aeronautical weather chart ! - Copyright ORBIFLY December 2007 - Disclaimer

ORBIFLY MET'MAP TEAM :

Programming & Development : Alexandra Zaïnal
Concept & Development : Baudouin d'Aumeries
Co-Development & Prog : Marc-Olivier Méhu
Technical & hardware support : Manuel Goepfert

Contact : metmap@orbifly.com




SOURCES & CREDITS :

   NOAA